sensor_id;sensor_type;location;lat;lon;timestamp;pressure;altitude;pressure_sealevel;temperature;humidity
37848;BME280;23688;33.130;-117.188;2022-08-19T00:00:48;99114.84;;;26.15;55.84
37848;BME280;23688;33.130;-117.188;2022-08-19T00:03:16;99106.34;;;26.02;55.38
37848;BME280;23688;33.130;-117.188;2022-08-19T00:05:42;99109.63;;;26.11;55.61
37848;BME280;23688;33.130;-117.188;2022-08-19T00:08:09;99106.25;;;25.71;57.02
37848;BME280;23688;33.130;-117.188;2022-08-19T00:10:35;99107.34;;;25.97;57.13
37848;BME280;23688;33.130;-117.188;2022-08-19T00:13:01;99118.22;;;26.20;57.14
37848;BME280;23688;33.130;-117.188;2022-08-19T00:15:27;99124.31;;;25.58;59.50
37848;BME280;23688;33.130;-117.188;2022-08-19T00:17:54;99104.44;;;25.73;59.23
37848;BME280;23688;33.130;-117.188;2022-08-19T00:20:21;99114.00;;;26.13;58.73
37848;BME280;23688;33.130;-117.188;2022-08-19T00:22:47;99111.25;;;25.83;58.40
37848;BME280;23688;33.130;-117.188;2022-08-19T00:25:14;99108.06;;;25.69;59.64
37848;BME280;23688;33.130;-117.188;2022-08-19T00:27:41;99105.75;;;25.91;59.10
37848;BME280;23688;33.130;-117.188;2022-08-19T00:30:08;99106.16;;;26.09;58.47
37848;BME280;23688;33.130;-117.188;2022-08-19T00:32:37;99107.09;;;26.06;57.69
37848;BME280;23688;33.130;-117.188;2022-08-19T00:35:03;99110.84;;;26.30;57.50
37848;BME280;23688;33.130;-117.188;2022-08-19T00:37:30;99108.31;;;26.25;57.38
37848;BME280;23688;33.130;-117.188;2022-08-19T00:39:58;99108.16;;;26.00;58.23
37848;BME280;23688;33.130;-117.188;2022-08-19T00:42:25;99104.31;;;26.42;57.13
37848;BME280;23688;33.130;-117.188;2022-08-19T00:44:54;99114.81;;;26.46;57.52
37848;BME280;23688;33.130;-117.188;2022-08-19T00:47:20;99110.00;;;26.61;56.11
37848;BME280;23688;33.130;-117.188;2022-08-19T00:49:52;99105.78;;;26.52;56.87
37848;BME280;23688;33.130;-117.188;2022-08-19T00:52:24;99112.53;;;26.34;57.61
37848;BME280;23688;33.130;-117.188;2022-08-19T00:54:55;99097.44;;;26.03;59.00
37848;BME280;23688;33.130;-117.188;2022-08-19T00:57:36;99101.00;;;26.02;59.35
37848;BME280;23688;33.130;-117.188;2022-08-19T01:00:15;99085.91;;;26.03;58.66
37848;BME280;23688;33.130;-117.188;2022-08-19T01:02:42;99098.38;;;25.68;60.54
37848;BME280;23688;33.130;-117.188;2022-08-19T01:05:12;99106.59;;;25.92;60.23
37848;BME280;23688;33.130;-117.188;2022-08-19T01:07:40;99084.56;;;25.88;59.55
37848;BME280;23688;33.130;-117.188;2022-08-19T01:10:10;99096.47;;;26.06;59.70
37848;BME280;23688;33.130;-117.188;2022-08-19T01:12:38;99103.22;;;25.85;60.61
37848;BME280;23688;33.130;-117.188;2022-08-19T01:15:07;99100.09;;;25.35;62.23
37848;BME280;23688;33.130;-117.188;2022-08-19T01:17:36;99103.16;;;25.18;62.43
37848;BME280;23688;33.130;-117.188;2022-08-19T01:20:05;99097.84;;;25.19;62.96
37848;BME280;23688;33.130;-117.188;2022-08-19T01:25:12;99098.38;;;25.34;62.36
37848;BME280;23688;33.130;-117.188;2022-08-19T01:27:40;99105.53;;;24.91;64.15
37848;BME280;23688;33.130;-117.188;2022-08-19T01:30:07;99111.38;;;24.68;64.46
37848;BME280;23688;33.130;-117.188;2022-08-19T01:32:33;99102.31;;;24.78;64.51
37848;BME280;23688;33.130;-117.188;2022-08-19T01:35:03;99095.66;;;24.59;64.66
37848;BME280;23688;33.130;-117.188;2022-08-19T01:37:43;99095.78;;;24.53;65.52
37848;BME280;23688;33.130;-117.188;2022-08-19T01:40:10;99087.69;;;24.59;65.41
37848;BME280;23688;33.130;-117.188;2022-08-19T01:42:36;99103.03;;;24.43;66.57
37848;BME280;23688;33.130;-117.188;2022-08-19T01:45:06;99096.84;;;24.43;67.06
37848;BME280;23688;33.130;-117.188;2022-08-19T01:47:35;99099.16;;;24.18;67.89
37848;BME280;23688;33.130;-117.188;2022-08-19T01:50:06;99099.50;;;24.01;68.86
37848;BME280;23688;33.130;-117.188;2022-08-19T01:52:38;99098.00;;;23.87;69.40
37848;BME280;23688;33.130;-117.188;2022-08-19T01:55:05;99102.63;;;23.76;69.12
37848;BME280;23688;33.130;-117.188;2022-08-19T01:57:32;99096.75;;;24.05;68.16
37848;BME280;23688;33.130;-117.188;2022-08-19T01:59:59;99101.53;;;23.86;69.52
37848;BME280;23688;33.130;-117.188;2022-08-19T02:02:26;99105.31;;;23.71;70.10
37848;BME280;23688;33.130;-117.188;2022-08-19T02:04:52;99099.50;;;23.51;71.04
37848;BME280;23688;33.130;-117.188;2022-08-19T02:07:20;99097.72;;;23.52;71.11
37848;BME280;23688;33.130;-117.188;2022-08-19T02:09:47;99099.13;;;23.71;70.50
37848;BME280;23688;33.130;-117.188;2022-08-19T02:12:14;99102.00;;;23.59;71.83
37848;BME280;23688;33.130;-117.188;2022-08-19T02:14:42;99091.56;;;23.49;71.81
37848;BME280;23688;33.130;-117.188;2022-08-19T02:17:08;99109.81;;;23.14;74.48
37848;BME280;23688;33.130;-117.188;2022-08-19T02:19:35;99098.09;;;22.71;76.00
37848;BME280;23688;33.130;-117.188;2022-08-19T02:22:01;99107.22;;;22.49;78.09
37848;BME280;23688;33.130;-117.188;2022-08-19T02:24:28;99104.53;;;22.50;78.36
37848;BME280;23688;33.130;-117.188;2022-08-19T02:26:54;99090.38;;;22.56;77.27
37848;BME280;23688;33.130;-117.188;2022-08-19T02:29:20;99109.09;;;22.39;78.83
37848;BME280;23688;33.130;-117.188;2022-08-19T02:31:47;99115.38;;;22.30;79.70
37848;BME280;23688;33.130;-117.188;2022-08-19T02:34:13;99113.81;;;22.11;80.60
37848;BME280;23688;33.130;-117.188;2022-08-19T02:36:40;99106.03;;;21.98;81.24
37848;BME280;23688;33.130;-117.188;2022-08-19T02:39:06;99134.19;;;22.01;81.95
37848;BME280;23688;33.130;-117.188;2022-08-19T02:41:33;99134.41;;;21.83;82.94
37848;BME280;23688;33.130;-117.188;2022-08-19T02:44:02;99136.41;;;21.54;85.22
37848;BME280;23688;33.130;-117.188;2022-08-19T02:46:31;99136.56;;;21.34;86.11
37848;BME280;23688;33.130;-117.188;2022-08-19T02:49:00;99143.63;;;21.26;87.11
37848;BME280;23688;33.130;-117.188;2022-08-19T02:51:31;99148.06;;;21.21;87.70
37848;BME280;23688;33.130;-117.188;2022-08-19T02:53:57;99127.97;;;21.03;88.33
37848;BME280;23688;33.130;-117.188;2022-08-19T02:56:26;99148.25;;;20.97;89.52
37848;BME280;23688;33.130;-117.188;2022-08-19T02:58:54;99152.72;;;20.88;90.89
37848;BME280;23688;33.130;-117.188;2022-08-19T03:01:29;99146.59;;;20.80;91.06
37848;BME280;23688;33.130;-117.188;2022-08-19T03:03:56;99163.25;;;20.87;91.06
37848;BME280;23688;33.130;-117.188;2022-08-19T03:06:23;99158.84;;;20.90;90.75
37848;BME280;23688;33.130;-117.188;2022-08-19T03:08:50;99166.81;;;20.87;91.30
37848;BME280;23688;33.130;-117.188;2022-08-19T03:11:27;99175.59;;;20.88;92.01
37848;BME280;23688;33.130;-117.188;2022-08-19T03:13:55;99168.59;;;20.81;92.60
37848;BME280;23688;33.130;-117.188;2022-08-19T03:16:23;99166.78;;;20.86;92.28
37848;BME280;23688;33.130;-117.188;2022-08-19T03:18:51;99166.75;;;20.92;91.76
37848;BME280;23688;33.130;-117.188;2022-08-19T03:21:24;99175.66;;;20.74;93.56
37848;BME280;23688;33.130;-117.188;2022-08-19T03:23:54;99168.59;;;20.79;93.01
37848;BME280;23688;33.130;-117.188;2022-08-19T03:26:21;99180.00;;;20.81;93.03
37848;BME280;23688;33.130;-117.188;2022-08-19T03:28:47;99180.97;;;20.68;93.69
37848;BME280;23688;33.130;-117.188;2022-08-19T03:31:19;99181.88;;;20.59;94.86
37848;BME280;23688;33.130;-117.188;2022-08-19T03:33:47;99185.44;;;20.41;96.22
37848;BME280;23688;33.130;-117.188;2022-08-19T03:36:18;99189.81;;;20.48;96.20
37848;BME280;23688;33.130;-117.188;2022-08-19T03:38:49;99181.88;;;20.51;95.33
37848;BME280;23688;33.130;-117.188;2022-08-19T03:41:19;99201.19;;;20.66;94.71
37848;BME280;23688;33.130;-117.188;2022-08-19T03:43:46;99194.97;;;20.74;94.16
37848;BME280;23688;33.130;-117.188;2022-08-19T03:46:17;99206.47;;;20.63;95.06
37848;BME280;23688;33.130;-117.188;2022-08-19T03:48:47;99209.06;;;20.77;94.35
37848;BME280;23688;33.130;-117.188;2022-08-19T03:51:28;99214.28;;;20.87;93.41
37848;BME280;23688;33.130;-117.188;2022-08-19T03:53:57;99234.63;;;20.58;94.90
37848;BME280;23688;33.130;-117.188;2022-08-19T03:56:25;99220.56;;;20.43;96.62
37848;BME280;23688;33.130;-117.188;2022-08-19T03:58:55;99223.28;;;20.26;97.76
37848;BME280;23688;33.130;-117.188;2022-08-19T04:01:26;99236.44;;;20.14;99.48
37848;BME280;23688;33.130;-117.188;2022-08-19T04:03:52;99237.34;;;20.15;99.26
37848;BME280;23688;33.130;-117.188;2022-08-19T04:06:21;99233.84;;;19.96;100.00
37848;BME280;23688;33.130;-117.188;2022-08-19T04:08:49;99240.88;;;20.03;100.00
37848;BME280;23688;33.130;-117.188;2022-08-19T04:11:23;99243.47;;;20.18;100.00
37848;BME280;23688;33.130;-117.188;2022-08-19T04:13:51;99236.44;;;20.14;100.00
37848;BME280;23688;33.130;-117.188;2022-08-19T04:16:23;99239.13;;;20.05;100.00
37848;BME280;23688;33.130;-117.188;2022-08-19T04:18:50;99240.00;;;20.02;100.00
37848;BME280;23688;33.130;-117.188;2022-08-19T04:21:22;99241.75;;;20.05;100.00
37848;BME280;23688;33.130;-117.188;2022-08-19T04:23:49;99225.06;;;20.12;100.00
37848;BME280;23688;33.130;-117.188;2022-08-19T04:26:29;99241.75;;;20.08;100.00
37848;BME280;23688;33.130;-117.188;2022-08-19T04:29:05;99234.72;;;20.02;100.00
37848;BME280;23688;33.130;-117.188;2022-08-19T04:31:32;99220.66;;;19.94;100.00
37848;BME280;23688;33.130;-117.188;2022-08-19T04:34:06;99243.47;;;20.29;100.00
37848;BME280;23688;33.130;-117.188;2022-08-19T04:36:35;99217.97;;;20.19;100.00
37848;BME280;23688;33.130;-117.188;2022-08-19T04:39:03;99233.84;;;19.99;100.00
37848;BME280;23688;33.130;-117.188;2022-08-19T04:41:29;99236.47;;;19.91;100.00
37848;BME280;23688;33.130;-117.188;2022-08-19T04:44:14;99232.97;;;19.86;100.00
37848;BME280;23688;33.130;-117.188;2022-08-19T04:46:47;99225.06;;;19.95;100.00
37848;BME280;23688;33.130;-117.188;2022-08-19T04:49:15;99225.91;;;20.06;100.00
37848;BME280;23688;33.130;-117.188;2022-08-19T04:51:44;99239.06;;;20.28;100.00
37848;BME280;23688;33.130;-117.188;2022-08-19T04:54:11;99244.34;;;20.20;100.00
37848;BME280;23688;33.130;-117.188;2022-08-19T04:56:39;99227.69;;;19.95;100.00
37848;BME280;23688;33.130;-117.188;2022-08-19T04:59:05;99230.34;;;19.87;100.00
37848;BME280;23688;33.130;-117.188;2022-08-19T05:01:33;99245.28;;;19.90;100.00
37848;BME280;23688;33.130;-117.188;2022-08-19T05:04:01;99244.38;;;19.91;100.00
37848;BME280;23688;33.130;-117.188;2022-08-19T05:06:31;99236.47;;;19.73;100.00
37848;BME280;23688;33.130;-117.188;2022-08-19T05:09:05;99220.69;;;19.79;100.00
37848;BME280;23688;33.130;-117.188;2022-08-19T05:11:35;99239.13;;;19.96;100.00
37848;BME280;23688;33.130;-117.188;2022-08-19T05:14:04;99232.06;;;20.08;100.00
37848;BME280;23688;33.130;-117.188;2022-08-19T05:16:31;99226.81;;;19.96;100.00
37848;BME280;23688;33.130;-117.188;2022-08-19T05:18:57;99231.19;;;20.20;100.00
37848;BME280;23688;33.130;-117.188;2022-08-19T05:21:43;99235.59;;;20.17;100.00
37848;BME280;23688;33.130;-117.188;2022-08-19T05:24:28;99231.22;;;19.96;100.00
37848;BME280;23688;33.130;-117.188;2022-08-19T05:26:55;99222.44;;;19.87;100.00
37848;BME280;23688;33.130;-117.188;2022-08-19T05:29:24;99225.03;;;20.01;100.00
37848;BME280;23688;33.130;-117.188;2022-08-19T05:31:51;99240.88;;;19.89;100.00
37848;BME280;23688;33.130;-117.188;2022-08-19T05:34:19;99230.34;;;19.77;100.00
37848;BME280;23688;33.130;-117.188;2022-08-19T05:36:54;99231.22;;;19.80;100.00
37848;BME280;23688;33.130;-117.188;2022-08-19T05:39:25;99228.53;;;19.65;100.00
37848;BME280;23688;33.130;-117.188;2022-08-19T05:41:56;99225.91;;;19.60;100.00
37848;BME280;23688;33.130;-117.188;2022-08-19T05:44:28;99217.13;;;19.54;100.00
37848;BME280;23688;33.130;-117.188;2022-08-19T05:46:59;99227.66;;;19.63;100.00
37848;BME280;23688;33.130;-117.188;2022-08-19T05:49:27;99224.13;;;19.58;100.00
37848;BME280;23688;33.130;-117.188;2022-08-19T05:51:54;99225.03;;;19.61;100.00
37848;BME280;23688;33.130;-117.188;2022-08-19T05:54:22;99222.41;;;19.64;100.00
37848;BME280;23688;33.130;-117.188;2022-08-19T05:56:50;99213.63;;;19.61;100.00
37848;BME280;23688;33.130;-117.188;2022-08-19T05:59:19;99219.75;;;19.63;100.00
37848;BME280;23688;33.130;-117.188;2022-08-19T06:01:49;99205.72;;;19.67;100.00
37848;BME280;23688;33.130;-117.188;2022-08-19T06:04:21;99207.50;;;19.71;100.00
37848;BME280;23688;33.130;-117.188;2022-08-19T06:06:50;99214.53;;;19.67;100.00
37848;BME280;23688;33.130;-117.188;2022-08-19T06:09:18;99206.63;;;19.86;100.00
37848;BME280;23688;33.130;-117.188;2022-08-19T06:11:47;99197.81;;;19.99;100.00
37848;BME280;23688;33.130;-117.188;2022-08-19T06:14:20;99188.13;;;20.09;100.00
37848;BME280;23688;33.130;-117.188;2022-08-19T06:16:49;99191.63;;;20.22;100.00
37848;BME280;23688;33.130;-117.188;2022-08-19T06:19:21;99203.91;;;20.32;99.78
37848;BME280;23688;33.130;-117.188;2022-08-19T06:21:49;99185.47;;;20.32;99.20
37848;BME280;23688;33.130;-117.188;2022-08-19T06:24:20;99200.34;;;20.51;98.06
37848;BME280;23688;33.130;-117.188;2022-08-19T06:26:49;99190.66;;;20.55;97.72
37848;BME280;23688;33.130;-117.188;2022-08-19T06:29:17;99186.28;;;20.51;97.30
37848;BME280;23688;33.130;-117.188;2022-08-19T06:31:47;99175.72;;;20.49;96.54
37848;BME280;23688;33.130;-117.188;2022-08-19T06:34:16;99172.22;;;20.58;95.86
37848;BME280;23688;33.130;-117.188;2022-08-19T06:36:47;99181.78;;;20.76;94.49
37848;BME280;23688;33.130;-117.188;2022-08-19T06:39:23;99165.13;;;20.71;93.37
37848;BME280;23688;33.130;-117.188;2022-08-19T06:41:51;99181.72;;;20.88;92.55
37848;BME280;23688;33.130;-117.188;2022-08-19T06:44:18;99184.38;;;20.90;92.01
37848;BME280;23688;33.130;-117.188;2022-08-19T06:46:46;99182.63;;;20.87;91.41
37848;BME280;23688;33.130;-117.188;2022-08-19T06:49:12;99189.63;;;20.93;90.79
37848;BME280;23688;33.130;-117.188;2022-08-19T06:51:41;99184.34;;;20.91;90.71
37848;BME280;23688;33.130;-117.188;2022-08-19T06:54:07;99182.63;;;20.87;90.73
37848;BME280;23688;33.130;-117.188;2022-08-19T06:56:34;99186.97;;;20.91;90.72
37848;BME280;23688;33.130;-117.188;2022-08-19T06:59:10;99165.91;;;20.84;90.61
37848;BME280;23688;33.130;-117.188;2022-08-19T07:01:40;99185.19;;;20.98;90.52
37848;BME280;23688;33.130;-117.188;2022-08-19T07:04:07;99190.47;;;21.00;90.29
37848;BME280;23688;33.130;-117.188;2022-08-19T07:06:35;99179.03;;;21.01;90.22
37848;BME280;23688;33.130;-117.188;2022-08-19T07:09:03;99173.75;;;20.94;90.13
37848;BME280;23688;33.130;-117.188;2022-08-19T07:11:30;99186.03;;;21.03;89.76
37848;BME280;23688;33.130;-117.188;2022-08-19T07:13:56;99182.56;;;20.97;89.17
37848;BME280;23688;33.130;-117.188;2022-08-19T07:16:22;99186.97;;;20.96;88.55
37848;BME280;23688;33.130;-117.188;2022-08-19T07:18:50;99182.59;;;20.95;88.39
37848;BME280;23688;33.130;-117.188;2022-08-19T07:21:25;99184.31;;;20.96;88.12
37848;BME280;23688;33.130;-117.188;2022-08-19T07:23:56;99184.31;;;20.96;88.19
37848;BME280;23688;33.130;-117.188;2022-08-19T07:26:26;99181.69;;;20.96;87.60
37848;BME280;23688;33.130;-117.188;2022-08-19T07:28:53;99177.28;;;20.92;87.87
37848;BME280;23688;33.130;-117.188;2022-08-19T07:31:22;99183.47;;;20.92;87.45
37848;BME280;23688;33.130;-117.188;2022-08-19T07:33:50;99173.81;;;20.87;87.42
37848;BME280;23688;33.130;-117.188;2022-08-19T07:36:21;99180.81;;;20.94;87.82
37848;BME280;23688;33.130;-117.188;2022-08-19T07:38:49;99180.84;;;20.92;87.35
37848;BME280;23688;33.130;-117.188;2022-08-19T07:41:21;99173.78;;;20.91;87.33
37848;BME280;23688;33.130;-117.188;2022-08-19T07:43:49;99163.25;;;20.87;87.48
37848;BME280;23688;33.130;-117.188;2022-08-19T07:46:16;99164.19;;;20.81;88.18
37848;BME280;23688;33.130;-117.188;2022-08-19T07:48:44;99164.13;;;20.89;88.53
37848;BME280;23688;33.130;-117.188;2022-08-19T07:51:15;99156.25;;;20.84;88.83
37848;BME280;23688;33.130;-117.188;2022-08-19T07:53:42;99150.97;;;20.86;88.98
37848;BME280;23688;33.130;-117.188;2022-08-19T07:56:11;99138.72;;;20.76;89.12
37848;BME280;23688;33.130;-117.188;2022-08-19T07:58:40;99136.94;;;20.76;89.25
37848;BME280;23688;33.130;-117.188;2022-08-19T08:01:12;99142.19;;;20.79;89.44
37848;BME280;23688;33.130;-117.188;2022-08-19T08:03:39;99130.81;;;20.76;89.52
37848;BME280;23688;33.130;-117.188;2022-08-19T08:06:24;99135.16;;;20.80;89.66
37848;BME280;23688;33.130;-117.188;2022-08-19T08:09:09;99122.00;;;20.78;90.37
37848;BME280;23688;33.130;-117.188;2022-08-19T08:11:45;99134.28;;;20.81;89.94
37848;BME280;23688;33.130;-117.188;2022-08-19T08:14:21;99127.25;;;20.75;89.95
37848;BME280;23688;33.130;-117.188;2022-08-19T08:16:49;99124.66;;;20.73;90.26
37848;BME280;23688;33.130;-117.188;2022-08-19T08:19:21;99122.88;;;20.76;90.38
37848;BME280;23688;33.130;-117.188;2022-08-19T08:21:49;99117.59;;;20.76;90.65
37848;BME280;23688;33.130;-117.188;2022-08-19T08:24:16;99111.44;;;20.75;89.74
37848;BME280;23688;33.130;-117.188;2022-08-19T08:26:43;99101.81;;;20.65;89.38
37848;BME280;23688;33.130;-117.188;2022-08-19T08:29:10;99112.38;;;20.65;88.48
37848;BME280;23688;33.130;-117.188;2022-08-19T08:31:40;99106.22;;;20.64;88.48
37848;BME280;23688;33.130;-117.188;2022-08-19T08:34:07;99109.75;;;20.68;88.22
37848;BME280;23688;33.130;-117.188;2022-08-19T08:36:39;99107.09;;;20.68;88.09
37848;BME280;23688;33.130;-117.188;2022-08-19T08:39:13;99106.22;;;20.70;89.10
37848;BME280;23688;33.130;-117.188;2022-08-19T08:41:51;99110.59;;;20.73;89.37
37848;BME280;23688;33.130;-117.188;2022-08-19T08:44:48;99109.69;;;20.76;89.58
37848;BME280;23688;33.130;-117.188;2022-08-19T08:47:19;99099.13;;;20.76;89.71
37848;BME280;23688;33.130;-117.188;2022-08-19T08:52:32;99098.25;;;20.77;90.18
37848;BME280;23688;33.130;-117.188;2022-08-19T08:55:09;99087.66;;;20.80;90.19
37848;BME280;23688;33.130;-117.188;2022-08-19T09:00:30;99084.22;;;20.73;90.15
37848;BME280;23688;33.130;-117.188;2022-08-19T09:02:58;99077.22;;;20.64;90.31
37848;BME280;23688;33.130;-117.188;2022-08-19T09:05:36;99077.28;;;20.58;90.61
37848;BME280;23688;33.130;-117.188;2022-08-19T09:08:15;99067.59;;;20.49;91.34
37848;BME280;23688;33.130;-117.188;2022-08-19T09:10:49;99067.66;;;20.42;92.29
37848;BME280;23688;33.130;-117.188;2022-08-19T09:13:32;99054.53;;;20.25;92.78
37848;BME280;23688;33.130;-117.188;2022-08-19T09:16:06;99041.47;;;20.00;94.79
37848;BME280;23688;33.130;-117.188;2022-08-19T09:18:48;99043.25;;;19.98;94.86
37848;BME280;23688;33.130;-117.188;2022-08-19T09:21:18;99066.03;;;20.08;94.68
37848;BME280;23688;33.130;-117.188;2022-08-19T09:23:44;99065.19;;;20.05;94.76
37848;BME280;23688;33.130;-117.188;2022-08-19T09:26:14;99063.38;;;20.18;94.02
37848;BME280;23688;33.130;-117.188;2022-08-19T09:28:42;99056.31;;;20.21;93.51
37848;BME280;23688;33.130;-117.188;2022-08-19T09:31:17;99058.03;;;20.30;92.42
37848;BME280;23688;33.130;-117.188;2022-08-19T09:33:45;99053.66;;;20.29;92.08
37848;BME280;23688;33.130;-117.188;2022-08-19T09:36:14;99065.94;;;20.36;92.53
37848;BME280;23688;33.130;-117.188;2022-08-19T09:38:41;99066.78;;;20.34;92.19
37848;BME280;23688;33.130;-117.188;2022-08-19T09:41:10;99072.09;;;20.30;91.68
37848;BME280;23688;33.130;-117.188;2022-08-19T09:43:40;99074.75;;;20.29;91.70
37848;BME280;23688;33.130;-117.188;2022-08-19T09:46:07;99082.66;;;20.29;91.26
37848;BME280;23688;33.130;-117.188;2022-08-19T09:48:36;99067.75;;;20.20;91.54
37848;BME280;23688;33.130;-117.188;2022-08-19T09:51:12;99084.41;;;20.28;91.47
37848;BME280;23688;33.130;-117.188;2022-08-19T09:53:46;99072.97;;;20.28;91.64
37848;BME280;23688;33.130;-117.188;2022-08-19T09:56:16;99071.22;;;20.28;91.52
37848;BME280;23688;33.130;-117.188;2022-08-19T09:58:43;99063.34;;;20.27;91.36
37848;BME280;23688;33.130;-117.188;2022-08-19T10:01:14;99066.84;;;20.26;91.41
37848;BME280;23688;33.130;-117.188;2022-08-19T10:03:41;99049.28;;;20.20;91.31
37848;BME280;23688;33.130;-117.188;2022-08-19T10:06:07;99051.94;;;20.20;90.99
37848;BME280;23688;33.130;-117.188;2022-08-19T10:08:36;99049.38;;;20.05;91.34
37848;BME280;23688;33.130;-117.188;2022-08-19T10:11:05;99045.88;;;19.97;91.50
37848;BME280;23688;33.130;-117.188;2022-08-19T10:13:32;99029.22;;;19.92;91.27
37848;BME280;23688;33.130;-117.188;2022-08-19T10:16:07;99031.88;;;19.82;91.78
37848;BME280;23688;33.130;-117.188;2022-08-19T10:18:34;99036.31;;;19.76;92.19
37848;BME280;23688;33.130;-117.188;2022-08-19T10:21:12;99040.69;;;19.83;92.71
37848;BME280;23688;33.130;-117.188;2022-08-19T10:23:42;99045.09;;;19.65;93.68
37848;BME280;23688;33.130;-117.188;2022-08-19T10:26:14;99032.78;;;19.66;93.96
37848;BME280;23688;33.130;-117.188;2022-08-19T10:28:41;99034.50;;;19.82;94.05
37848;BME280;23688;33.130;-117.188;2022-08-19T10:31:15;99037.13;;;19.88;94.10
37848;BME280;23688;33.130;-117.188;2022-08-19T10:33:43;99039.78;;;19.85;94.43
37848;BME280;23688;33.130;-117.188;2022-08-19T10:36:15;99048.50;;;19.98;94.33
37848;BME280;23688;33.130;-117.188;2022-08-19T10:38:45;99045.84;;;20.04;93.95
37848;BME280;23688;33.130;-117.188;2022-08-19T10:41:15;99037.06;;;19.99;93.90
37848;BME280;23688;33.130;-117.188;2022-08-19T10:43:42;99037.94;;;20.04;94.01
37848;BME280;23688;33.130;-117.188;2022-08-19T10:46:13;99043.19;;;20.10;93.64
37848;BME280;23688;33.130;-117.188;2022-08-19T10:48:41;99031.75;;;20.15;92.99
37848;BME280;23688;33.130;-117.188;2022-08-19T10:51:09;99033.47;;;20.20;92.81
37848;BME280;23688;33.130;-117.188;2022-08-19T10:53:55;99038.78;;;20.17;93.04
37848;BME280;23688;33.130;-117.188;2022-08-19T10:56:22;99027.34;;;20.14;92.77
37848;BME280;23688;33.130;-117.188;2022-08-19T10:59:07;99037.06;;;20.05;92.95
37848;BME280;23688;33.130;-117.188;2022-08-19T11:01:35;99036.25;;;19.91;93.34
37848;BME280;23688;33.130;-117.188;2022-08-19T11:04:03;99041.47;;;19.99;93.20
37848;BME280;23688;33.130;-117.188;2022-08-19T11:06:31;99045.81;;;20.10;92.79
37848;BME280;23688;33.130;-117.188;2022-08-19T11:08:58;99052.81;;;20.19;92.53
37848;BME280;23688;33.130;-117.188;2022-08-19T11:11:26;99053.69;;;20.24;91.87
37848;BME280;23688;33.130;-117.188;2022-08-19T11:13:54;99053.66;;;20.27;92.12
37848;BME280;23688;33.130;-117.188;2022-08-19T11:16:23;99057.16;;;20.28;92.18
37848;BME280;23688;33.130;-117.188;2022-08-19T11:18:53;99050.09;;;20.35;91.65
37848;BME280;23688;33.130;-117.188;2022-08-19T11:21:26;99057.09;;;20.42;91.19
37848;BME280;23688;33.130;-117.188;2022-08-19T11:23:56;99050.94;;;20.40;90.81
37848;BME280;23688;33.130;-117.188;2022-08-19T11:26:23;99057.13;;;20.39;90.76
37848;BME280;23688;33.130;-117.188;2022-08-19T11:28:51;99053.59;;;20.41;90.84
37848;BME280;23688;33.130;-117.188;2022-08-19T11:31:26;99031.66;;;20.30;90.94
37848;BME280;23688;33.130;-117.188;2022-08-19T11:33:53;99039.56;;;20.35;90.71
37848;BME280;23688;33.130;-117.188;2022-08-19T11:36:20;99032.53;;;20.35;90.97
37848;BME280;23688;33.130;-117.188;2022-08-19T11:38:48;99021.97;;;20.34;90.81
37848;BME280;23688;33.130;-117.188;2022-08-19T11:41:18;99040.41;;;20.41;90.71
37848;BME280;23688;33.130;-117.188;2022-08-19T11:43:44;99037.78;;;20.41;91.05
37848;BME280;23688;33.130;-117.188;2022-08-19T11:46:13;99030.78;;;20.28;91.42
37848;BME280;23688;33.130;-117.188;2022-08-19T11:48:40;99032.56;;;20.29;91.60
37848;BME280;23688;33.130;-117.188;2022-08-19T11:51:15;99030.81;;;20.23;91.91
37848;BME280;23688;33.130;-117.188;2022-08-19T11:53:42;99032.56;;;20.29;91.91
37848;BME280;23688;33.130;-117.188;2022-08-19T11:56:09;99034.31;;;20.30;92.40
37848;BME280;23688;33.130;-117.188;2022-08-19T11:58:36;99032.56;;;20.26;92.45
37848;BME280;23688;33.130;-117.188;2022-08-19T12:01:10;99031.66;;;20.30;92.43
37848;BME280;23688;33.130;-117.188;2022-08-19T12:03:38;99033.41;;;20.31;92.03
37848;BME280;23688;33.130;-117.188;2022-08-19T12:06:06;99026.41;;;20.31;92.20
37848;BME280;23688;33.130;-117.188;2022-08-19T12:08:33;99010.59;;;20.25;92.04
37848;BME280;23688;33.130;-117.188;2022-08-19T12:10:59;99015.84;;;20.35;92.07
37848;BME280;23688;33.130;-117.188;2022-08-19T12:13:30;99019.34;;;20.34;91.63
37848;BME280;23688;33.130;-117.188;2022-08-19T12:15:56;99022.00;;;20.32;91.60
37848;BME280;23688;33.130;-117.188;2022-08-19T12:18:23;99016.72;;;20.32;91.56
37848;BME280;23688;33.130;-117.188;2022-08-19T12:20:52;99003.56;;;20.27;91.76
37848;BME280;23688;33.130;-117.188;2022-08-19T12:23:20;99021.13;;;20.30;91.93
37848;BME280;23688;33.130;-117.188;2022-08-19T12:25:49;99018.50;;;20.30;92.00
37848;BME280;23688;33.130;-117.188;2022-08-19T12:28:21;99010.59;;;20.27;92.16
37848;BME280;23688;33.130;-117.188;2022-08-19T12:30:48;99007.03;;;20.36;92.07
37848;BME280;23688;33.130;-117.188;2022-08-19T12:33:17;99003.53;;;20.35;91.77
37848;BME280;23688;33.130;-117.188;2022-08-19T12:35:45;99001.78;;;20.34;91.80
37848;BME280;23688;33.130;-117.188;2022-08-19T12:38:13;99007.91;;;20.39;91.51
37848;BME280;23688;33.130;-117.188;2022-08-19T12:40:40;99007.88;;;20.41;91.52
37848;BME280;23688;33.130;-117.188;2022-08-19T12:43:07;99001.72;;;20.42;91.33
37848;BME280;23688;33.130;-117.188;2022-08-19T12:45:34;99000.00;;;20.35;91.22
37848;BME280;23688;33.130;-117.188;2022-08-19T12:48:00;99009.69;;;20.31;91.35